Time;durP1;ratioP1;P1;durP2;ratioP2;P2;SDS_P1;SDS_P2;PMS_P1;PMS_P2;Temp;Humidity;BMP_temperature;BMP_pressure;BME280_temperature;BME280_humidity;BME280_pressure;Samples;Min_cycle;Max_cycle;Signal;HPM_P1;HPM_P2
2023/05/14 00:01:17;;;;;;;16.30;7.70;;;;;;;9.50;68.12;101951.54;107602;1251;112285;-70
2023/05/14 00:03:48;;;;;;;16.80;7.40;;;;;;;9.49;68.15;101949.33;107664;1251;109684;-71
2023/05/14 00:06:17;;;;;;;14.70;7.10;;;;;;;9.44;68.32;101953.21;107634;1251;107651;-71
2023/05/14 00:08:45;;;;;;;70.70;9.10;;;;;;;9.42;68.29;101951.89;107590;1251;97839;-69
2023/05/14 00:11:14;;;;;;;17.10;8.00;;;;;;;9.40;68.16;101954.34;107541;1253;98373;-69
2023/05/14 00:13:43;;;;;;;15.20;7.10;;;;;;;9.39;68.27;101950.48;107605;1253;111733;-67
2023/05/14 00:16:12;;;;;;;21.80;7.30;;;;;;;9.35;68.33;101946.97;107607;1251;109955;-66
2023/05/14 00:18:40;;;;;;;20.40;8.00;;;;;;;9.31;68.43;101947.24;107563;1251;108305;-69
2023/05/14 00:21:08;;;;;;;25.20;7.90;;;;;;;9.27;68.95;101950.39;107594;1254;97881;-70
2023/05/14 00:23:36;;;;;;;18.00;7.50;;;;;;;9.23;69.07;101954.58;107586;1251;97821;-68
2023/05/14 00:26:05;;;;;;;13.90;7.60;;;;;;;9.17;69.30;101956.73;107594;1251;114508;-69
2023/05/14 00:28:34;;;;;;;13.80;7.40;;;;;;;9.12;69.17;101958.65;107582;1251;109477;-68
2023/05/14 00:31:03;;;;;;;17.80;7.10;;;;;;;9.09;69.35;101955.77;107540;1251;108228;-69
2023/05/14 00:33:31;;;;;;;17.20;8.60;;;;;;;9.06;69.47;101952.06;107621;1251;97937;-68
2023/05/14 00:36:00;;;;;;;18.10;7.20;;;;;;;9.01;69.55;101949.81;107598;1253;97844;-69
2023/05/14 00:38:28;;;;;;;18.00;8.60;;;;;;;8.98;69.89;101951.11;107587;1254;111025;-67
2023/05/14 00:40:57;;;;;;;21.20;8.50;;;;;;;8.94;69.72;101945.80;107589;1251;109938;-69
2023/05/14 00:43:25;;;;;;;21.20;8.30;;;;;;;8.90;69.81;101942.80;107576;1251;108444;-71
2023/05/14 00:45:54;;;;;;;21.80;8.30;;;;;;;8.90;69.91;101942.84;107579;1254;98289;-68
2023/05/14 00:48:23;;;;;;;20.70;7.50;;;;;;;8.90;70.32;101942.84;107579;1254;98407;-67
2023/05/14 00:50:53;;;;;;;19.50;8.30;;;;;;;8.88;70.30;101936.32;107577;1254;111743;-67
2023/05/14 00:53:21;;;;;;;20.20;8.40;;;;;;;8.86;70.18;101937.34;107526;1252;107456;-70
2023/05/14 00:55:50;;;;;;;23.40;8.80;;;;;;;8.85;69.98;101928.48;107608;1255;107410;-67
2023/05/14 00:58:18;;;;;;;21.20;9.30;;;;;;;8.84;69.99;101924.44;107616;1251;97864;-71
2023/05/14 01:00:47;;;;;;;18.10;8.30;;;;;;;8.83;70.13;101928.96;107634;1251;97701;-68
2023/05/14 01:03:16;;;;;;;23.90;8.70;;;;;;;8.82;70.13;101925.30;107629;1251;112136;-67
2023/05/14 01:06:03;;;;;;;15.20;7.60;;;;;;;8.80;70.11;101923.48;107652;1251;108754;-67
2023/05/14 01:09:07;;;;;;;13.30;7.60;;;;;;;8.77;70.09;101924.66;107598;1251;107970;-69
2023/05/14 01:11:44;;;;;;;;;;;;;;;8.73;69.90;101923.52;107579;1251;97714;-71
2023/05/14 01:14:50;;;;;;;19.50;8.50;;;;;;;8.68;69.83;101920.08;107609;1251;98350;-68
2023/05/14 01:17:21;;;;;;;18.50;8.30;;;;;;;8.63;69.83;101920.77;107680;1251;113162;-69
2023/05/14 01:19:51;;;;;;;21.70;9.10;;;;;;;8.59;69.95;101922.03;107590;1251;109580;-69
2023/05/14 01:22:19;;;;;;;20.10;7.90;;;;;;;8.58;69.99;101922.80;107645;1251;107715;-69
2023/05/14 01:24:47;;;;;;;13.60;7.70;;;;;;;8.57;70.01;101928.04;107551;1254;97927;-67
2023/05/14 01:27:37;;;;;;;23.20;8.10;;;;;;;8.57;70.14;101929.87;107585;1254;97726;-68
2023/05/14 01:30:14;;;;;;;18.70;7.50;;;;;;;8.54;70.03;101926.83;107640;1254;110209;-68
2023/05/14 01:32:47;;;;;;;20.80;8.50;;;;;;;8.50;70.24;101925.09;107685;1251;109399;-68
2023/05/14 01:35:16;;;;;;;14.70;8.50;;;;;;;8.44;70.07;101926.84;107681;1251;106990;-68
2023/05/14 01:37:46;;;;;;;16.70;7.70;;;;;;;8.39;70.27;101922.67;107607;1251;97885;-67
2023/05/14 01:40:14;;;;;;;16.10;7.50;;;;;;;8.37;70.72;101920.67;107670;1251;97753;-67
2023/05/14 01:42:44;;;;;;;31.30;8.50;;;;;;;8.35;70.59;101922.73;107617;1251;111632;-70
2023/05/14 01:45:12;;;;;;;16.30;7.50;;;;;;;8.35;70.52;101926.14;107673;1251;110021;-70
2023/05/14 01:47:41;;;;;;;16.50;7.70;;;;;;;8.35;70.45;101930.07;107605;1254;108151;-71
2023/05/14 01:50:10;;;;;;;17.10;7.70;;;;;;;8.36;70.47;101930.76;107552;1254;98425;-69
2023/05/14 01:52:39;;;;;;;15.70;7.40;;;;;;;8.34;70.52;101930.31;107617;1251;98414;-68
2023/05/14 01:55:08;;;;;;;18.50;7.80;;;;;;;8.31;70.49;101931.90;107598;1251;111717;-68
2023/05/14 01:57:36;;;;;;;19.20;8.10;;;;;;;8.28;70.50;101931.58;107687;1254;108250;-69
2023/05/14 02:00:06;;;;;;;15.30;6.90;;;;;;;8.24;70.61;101933.98;107566;1254;108140;-66
2023/05/14 02:02:40;;;;;;;20.10;7.20;;;;;;;8.19;70.58;101938.93;107581;1254;97828;-67
2023/05/14 02:05:11;;;;;;;20.20;7.60;;;;;;;8.14;70.73;101937.76;107670;1253;97823;-69
2023/05/14 02:07:42;;;;;;;16.40;7.70;;;;;;;8.11;70.78;101942.41;107644;1254;110747;-70
2023/05/14 02:10:10;;;;;;;14.40;7.20;;;;;;;8.09;71.03;101944.16;107558;1253;108833;-70
2023/05/14 02:12:39;;;;;;;14.50;7.50;;;;;;;8.06;70.94;101940.76;107601;1254;108127;-69
2023/05/14 02:15:09;;;;;;;24.20;8.40;;;;;;;8.04;70.82;101940.50;107536;1254;97817;-66
2023/05/14 02:17:38;;;;;;;15.20;8.30;;;;;;;8.02;71.03;101938.70;107613;1254;97865;-67
2023/05/14 02:20:09;;;;;;;22.20;7.60;;;;;;;7.98;71.13;101939.96;107633;1253;113084;-70
2023/05/14 02:22:37;;;;;;;17.90;7.70;;;;;;;7.94;70.97;101942.55;107618;1251;109152;-71
2023/05/14 02:25:10;;;;;;;21.00;7.50;;;;;;;7.91;71.12;101942.02;107583;1251;108848;-71
2023/05/14 02:27:39;;;;;;;20.60;7.40;;;;;;;7.86;71.15;101946.35;107620;1251;97825;-71
2023/05/14 02:30:12;;;;;;;19.00;7.80;;;;;;;7.82;71.55;101944.61;107615;1250;97821;-69
2023/05/14 02:32:40;;;;;;;14.50;6.50;;;;;;;7.79;71.65;101941.61;107643;1251;111898;-66
2023/05/14 02:35:09;;;;;;;13.90;7.30;;;;;;;7.77;71.55;101941.74;107646;1251;110127;-69
2023/05/14 02:37:41;;;;;;;22.00;7.80;;;;;;;7.72;71.89;101941.98;107555;1253;107756;-67
2023/05/14 02:40:11;;;;;;;12.70;7.70;;;;;;;7.68;71.63;101949.00;107591;1252;97932;-68
2023/05/14 02:42:39;;;;;;;17.90;8.00;;;;;;;7.64;71.51;101952.95;107575;1254;97843;-69
2023/05/14 02:45:08;;;;;;;16.50;7.50;;;;;;;7.63;71.87;101956.27;107619;1254;112134;-70
2023/05/14 02:47:36;;;;;;;22.40;7.80;;;;;;;7.62;71.85;101953.80;107619;1253;110804;-73
2023/05/14 02:50:06;;;;;;;22.70;7.10;;;;;;;7.63;71.79;101951.81;107664;1252;109325;-72
2023/05/14 02:52:34;;;;;;;14.80;8.30;;;;;;;7.59;71.74;101946.63;107644;1255;97720;-67
2023/05/14 02:55:04;;;;;;;18.70;8.10;;;;;;;7.61;71.72;101951.91;107682;1251;97834;-66
2023/05/14 02:57:32;;;;;;;20.70;8.10;;;;;;;7.59;71.69;101954.70;107585;1254;112276;-69
2023/05/14 03:00:00;;;;;;;16.30;7.70;;;;;;;7.58;71.76;101958.67;107617;1254;109859;-69
2023/05/14 03:02:29;;;;;;;20.00;8.30;;;;;;;7.59;71.60;101958.64;107567;1253;108392;-72
2023/05/14 03:04:58;;;;;;;20.40;8.00;;;;;;;7.58;71.91;101958.67;107563;1254;97828;-71
2023/05/14 03:07:27;;;;;;;19.00;7.40;;;;;;;7.60;71.95;101955.01;107612;1255;97937;-69
2023/05/14 03:09:56;;;;;;;14.30;7.60;;;;;;;7.62;71.91;101953.13;107613;1251;111271;-67
2023/05/14 03:12:24;;;;;;;14.60;7.30;;;;;;;7.62;71.85;101950.23;107548;1254;109772;-70
2023/05/14 03:14:52;;;;;;;20.70;7.70;;;;;;;7.64;71.89;101946.75;107615;1253;108141;-67
2023/05/14 03:17:20;;;;;;;21.50;7.40;;;;;;;7.65;72.10;101943.81;107632;1254;98381;-68
2023/05/14 03:19:49;;;;;;;15.30;7.40;;;;;;;7.65;72.15;101939.88;107659;1251;97819;-68
2023/05/14 03:22:17;;;;;;;13.30;7.00;;;;;;;7.65;72.31;101942.73;107661;1251;111183;-67
2023/05/14 03:24:48;;;;;;;18.50;8.40;;;;;;;7.65;72.35;101950.61;107504;1251;110249;-67
2023/05/14 03:27:16;;;;;;;16.30;7.80;;;;;;;7.67;72.44;101956.95;107591;1251;109082;-69
2023/05/14 03:29:45;;;;;;;15.70;8.50;;;;;;;7.69;72.25;101959.32;107602;1251;97808;-65
2023/05/14 03:32:14;;;;;;;21.70;9.20;;;;;;;7.70;72.34;101961.06;107641;1251;97710;-62
2023/05/14 03:34:43;;;;;;;18.20;10.20;;;;;;;7.72;72.69;101960.05;107660;1251;110316;-68
2023/05/14 03:37:12;;;;;;;25.80;11.00;;;;;;;7.74;72.69;101962.79;107630;1251;108125;-68
2023/05/14 03:39:41;;;;;;;25.70;10.60;;;;;;;7.78;72.65;101969.18;107603;1251;107633;-70
2023/05/14 03:42:09;;;;;;;17.50;8.40;;;;;;;7.82;72.72;101962.31;107541;1254;98738;-72
2023/05/14 03:44:38;;;;;;;23.20;8.60;;;;;;;7.88;72.72;101964.14;107596;1254;99527;-68
2023/05/14 03:47:06;;;;;;;14.50;7.50;;;;;;;7.92;72.72;101967.67;107660;1251;112001;-65
2023/05/14 03:49:35;;;;;;;19.00;7.80;;;;;;;7.96;72.75;101969.71;107625;1251;109647;-67
2023/05/14 03:52:03;;;;;;;17.40;8.00;;;;;;;8.01;72.80;101971.77;107574;1254;107656;-68
2023/05/14 03:54:32;;;;;;;15.50;8.10;;;;;;;8.05;72.84;101978.33;107556;1252;97906;-68
2023/05/14 03:57:00;;;;;;;20.60;8.40;;;;;;;8.10;73.03;101978.92;107545;1253;97767;-70
2023/05/14 03:59:29;;;;;;;23.00;9.00;;;;;;;8.13;72.93;101981.80;107609;1254;112147;-68
2023/05/14 04:01:57;;;;;;;18.30;8.50;;;;;;;8.14;73.15;101979.25;107586;1255;109946;-68
2023/05/14 04:04:26;;;;;;;16.80;7.60;;;;;;;8.16;73.09;101984.48;107657;1254;108732;-70
2023/05/14 04:06:55;;;;;;;18.00;8.60;;;;;;;8.22;73.18;101985.93;107585;1253;97915;-66
2023/05/14 04:09:23;;;;;;;23.40;8.10;;;;;;;8.27;73.18;101986.48;107519;1256;97915;-69
2023/05/14 04:11:52;;;;;;;13.40;7.70;;;;;;;8.33;73.13;101990.81;107547;1254;111958;-67
2023/05/14 04:14:21;;;;;;;14.90;7.80;;;;;;;8.39;73.24;101988.48;107571;1254;110077;-68
2023/05/14 04:16:49;;;;;;;21.20;9.00;;;;;;;8.47;73.39;101993.40;107555;1256;108220;-69
2023/05/14 04:19:18;;;;;;;20.40;8.50;;;;;;;8.55;73.40;101994.90;107618;1256;97833;-68
2023/05/14 04:21:50;;;;;;;17.60;8.40;;;;;;;8.61;73.42;101991.27;107614;1254;97908;-67
2023/05/14 04:24:18;;;;;;;16.50;8.20;;;;;;;8.66;73.47;101990.45;107629;1251;111524;-69
2023/05/14 04:26:47;;;;;;;25.40;11.40;;;;;;;8.73;73.39;101988.98;107640;1256;110057;-68
2023/05/14 04:29:15;;;;;;;21.40;9.30;;;;;;;8.81;73.48;101987.40;107556;1251;107410;-68
2023/05/14 04:31:43;;;;;;;18.30;9.10;;;;;;;8.88;73.54;101989.66;107576;1251;97844;-69
2023/05/14 04:34:12;;;;;;;25.30;9.30;;;;;;;8.94;73.51;101993.25;107626;1254;98484;-70
2023/05/14 04:36:40;;;;;;;27.70;10.00;;;;;;;8.96;73.30;101998.45;107598;1254;111191;-70
2023/05/14 04:39:10;;;;;;;19.40;9.80;;;;;;;9.03;73.44;102001.98;107591;1254;109295;-70
2023/05/14 04:41:39;;;;;;;21.50;11.80;;;;;;;9.11;73.48;102001.84;107623;1253;108032;-66
2023/05/14 04:44:08;;;;;;;18.40;10.50;;;;;;;9.19;73.23;102002.09;107589;1254;97918;-68
2023/05/14 04:46:37;;;;;;;17.80;10.00;;;;;;;9.26;73.29;102003.39;107601;1254;97720;-67
2023/05/14 04:49:05;;;;;;;21.80;10.20;;;;;;;9.30;73.11;102001.03;107629;1251;112275;-69
2023/05/14 04:51:33;;;;;;;29.00;10.80;;;;;;;9.33;72.70;102002.63;107588;1251;108978;-68
2023/05/14 04:54:01;;;;;;;29.20;10.70;;;;;;;9.38;72.79;102004.63;107635;1255;107828;-68
2023/05/14 04:56:30;;;;;;;17.90;9.70;;;;;;;9.44;72.64;102008.20;107584;1251;97816;-67
2023/05/14 04:58:58;;;;;;;28.70;11.70;;;;;;;9.48;72.62;102007.57;107612;1254;97690;-68
2023/05/14 05:01:26;;;;;;;18.40;10.40;;;;;;;9.53;72.32;102008.84;107584;1254;112353;-68
2023/05/14 05:03:56;;;;;;;22.80;11.10;;;;;;;9.58;72.31;102006.40;107587;1254;109553;-70
2023/05/14 05:06:25;;;;;;;20.10;7.70;;;;;;;9.63;72.18;102010.04;107556;1254;108080;-70
2023/05/14 05:08:54;;;;;;;25.40;9.00;;;;;;;9.67;71.73;102008.66;107632;1252;97818;-70
2023/05/14 05:11:22;;;;;;;24.20;9.00;;;;;;;9.75;71.34;102009.99;107638;1251;98457;-70
2023/05/14 05:13:51;;;;;;;19.70;8.90;;;;;;;9.81;71.28;102011.72;107568;1254;112894;-68
2023/05/14 05:16:19;;;;;;;16.90;8.40;;;;;;;9.89;70.84;102012.61;107646;1251;109643;-69
2023/05/14 05:18:48;;;;;;;25.10;10.20;;;;;;;9.97;70.71;102013.00;107546;1257;107891;-66
2023/05/14 05:21:16;;;;;;;21.70;8.70;;;;;;;10.07;70.52;102012.55;107586;1256;97820;-67
2023/05/14 05:23:44;;;;;;;16.20;8.00;;;;;;;10.14;70.24;102011.53;107568;1256;97736;-69
2023/05/14 05:26:13;;;;;;;23.50;9.00;;;;;;;10.21;70.18;102010.55;107577;1255;111180;-73
2023/05/14 05:28:41;;;;;;;16.90;8.80;;;;;;;10.29;70.10;102013.39;107667;1251;109949;-72
2023/05/14 05:31:09;;;;;;;18.60;10.00;;;;;;;10.38;69.84;102017.12;107562;1256;107788;-67
2023/05/14 05:33:38;;;;;;;29.80;11.10;;;;;;;10.46;69.53;102012.47;107679;1251;98045;-70
2023/05/14 05:36:07;;;;;;;16.10;8.60;;;;;;;10.51;69.42;102013.19;107546;1256;98530;-69
2023/05/14 05:38:39;;;;;;;21.70;9.50;;;;;;;10.59;69.28;102013.20;107616;1251;112172;-67
2023/05/14 05:41:10;;;;;;;27.40;9.30;;;;;;;10.65;69.13;102009.89;107524;1254;108947;-68
2023/05/14 05:43:38;;;;;;;17.40;8.70;;;;;;;10.73;69.05;102009.52;107558;1255;107206;-69
2023/05/14 05:46:07;;;;;;;26.30;9.50;;;;;;;10.83;68.93;102006.36;107612;1254;97814;-70
2023/05/14 05:48:36;;;;;;;21.60;10.20;;;;;;;10.91;68.55;102003.42;107612;1254;97797;-68
2023/05/14 05:51:04;;;;;;;15.20;8.80;;;;;;;11.00;68.38;102001.90;107621;1254;111899;-68
2023/05/14 05:53:35;;;;;;;17.90;8.40;;;;;;;11.11;68.33;102000.98;107599;1254;110106;-72
2023/05/14 05:56:09;;;;;;;19.00;8.50;;;;;;;11.21;68.22;101998.08;107596;1256;108583;-71
2023/05/14 05:58:37;;;;;;;16.70;8.30;;;;;;;11.31;67.73;101997.02;107559;1256;97920;-66
2023/05/14 06:01:07;;;;;;;18.90;8.30;;;;;;;11.41;67.58;101997.38;107647;1254;98452;-69
2023/05/14 06:03:36;;;;;;;20.50;9.10;;;;;;;11.49;66.74;101993.92;107543;1254;112226;-69
2023/05/14 06:06:05;;;;;;;19.00;7.90;;;;;;;11.58;66.48;101991.09;107612;1255;110333;-68
2023/05/14 06:08:33;;;;;;;17.70;9.00;;;;;;;11.67;65.83;101991.34;107644;1256;107558;-69
2023/05/14 06:11:01;;;;;;;17.80;7.70;;;;;;;11.76;65.14;101988.19;107605;1251;97917;-70
2023/05/14 06:13:30;;;;;;;17.30;11.00;;;;;;;11.86;64.70;101982.77;107643;1251;98097;-69
2023/05/14 06:15:58;;;;;;;19.50;10.80;;;;;;;11.96;64.33;101982.60;107514;1258;111678;-69
2023/05/14 06:18:27;;;;;;;16.10;8.50;;;;;;;12.05;63.85;101979.92;107610;1255;109541;-70
2023/05/14 06:20:56;;;;;;;16.60;7.80;;;;;;;12.16;63.64;101978.95;107633;1255;107593;-66
2023/05/14 06:23:25;;;;;;;17.40;7.30;;;;;;;12.25;63.29;101978.83;107614;1251;97810;-72
2023/05/14 06:25:53;;;;;;;11.50;7.00;;;;;;;12.33;62.95;101978.35;107663;1255;100199;-73
2023/05/14 06:28:22;;;;;;;12.90;7.70;;;;;;;12.43;62.67;101976.13;107650;1251;110625;-71
2023/05/14 06:30:52;;;;;;;14.70;7.40;;;;;;;12.55;60.67;101981.02;107624;1251;109568;-69
2023/05/14 06:33:28;;;;;;;15.10;6.90;;;;;;;12.64;60.02;101978.30;107632;1251;108367;-68
2023/05/14 06:36:05;;;;;;;12.00;7.00;;;;;;;12.74;59.43;101972.53;107628;1255;97809;-68
2023/05/14 06:38:33;;;;;;;16.80;7.80;;;;;;;12.84;59.54;101975.48;107633;1251;97724;-70
2023/05/14 06:41:01;;;;;;;15.00;7.20;;;;;;;12.94;59.78;101972.56;107618;1251;111298;-69
2023/05/14 06:43:29;;;;;;;13.60;6.80;;;;;;;13.03;59.50;101971.14;107626;1251;108902;-68
2023/05/14 06:45:58;;;;;;;22.80;7.80;;;;;;;13.14;59.37;101969.88;107599;1256;107828;-70
2023/05/14 06:48:28;;;;;;;11.50;6.40;;;;;;;13.25;59.50;101965.09;107600;1254;97861;-69
2023/05/14 06:50:56;;;;;;;14.70;6.50;;;;;;;13.33;59.28;101968.58;107635;1254;98517;-68
2023/05/14 06:53:25;;;;;;;21.90;6.40;;;;;;;13.43;58.99;101967.98;107575;1254;112412;-68
2023/05/14 06:55:53;;;;;;;15.50;6.70;;;;;;;13.53;58.07;101963.55;107637;1256;109370;-71
2023/05/14 06:58:21;;;;;;;15.70;6.60;;;;;;;13.62;58.27;101953.44;107620;1254;108241;-69
2023/05/14 07:00:50;;;;;;;18.20;6.60;;;;;;;13.71;57.78;101950.91;107599;1254;97813;-70
2023/05/14 07:03:18;;;;;;;15.60;5.80;;;;;;;13.84;57.64;101950.49;107621;1253;97813;-65
2023/05/14 07:05:47;;;;;;;13.90;5.40;;;;;;;13.98;56.70;101952.39;107576;1254;110973;-69
2023/05/14 07:08:15;;;;;;;17.10;5.50;;;;;;;14.09;56.07;101953.33;107639;1256;110595;-68
2023/05/14 07:10:43;;;;;;;17.70;6.10;;;;;;;14.19;56.04;101954.08;107602;1255;108379;-68
2023/05/14 07:13:11;;;;;;;10.10;5.10;;;;;;;14.33;55.92;101955.60;107614;1256;97937;-69
2023/05/14 07:15:40;;;;;;;12.50;5.10;;;;;;;14.50;55.03;101953.29;107582;1250;98393;-68
2023/05/14 07:18:08;;;;;;;13.40;5.60;;;;;;;14.64;54.55;101948.98;107631;1257;110711;-68
2023/05/14 07:20:36;;;;;;;7.40;4.80;;;;;;;14.75;54.52;101948.42;107582;1251;109812;-73
2023/05/14 07:23:05;;;;;;;28.10;5.40;;;;;;;14.83;54.72;101944.15;107567;1255;108159;-72
2023/05/14 07:25:33;;;;;;;18.50;4.40;;;;;;;14.90;54.95;101940.80;107649;1251;97826;-70
2023/05/14 07:28:02;;;;;;;19.90;5.40;;;;;;;15.00;55.08;101934.13;107546;1254;98373;-69
2023/05/14 07:30:30;;;;;;;12.00;5.40;;;;;;;15.12;54.97;101931.57;107617;1257;112143;-67
2023/05/14 07:32:58;;;;;;;20.00;5.40;;;;;;;15.24;53.83;101928.23;107544;1254;110111;-68
2023/05/14 07:35:27;;;;;;;8.40;5.00;;;;;;;15.37;53.87;101927.95;107552;1255;108326;-67
2023/05/14 07:37:55;;;;;;;13.10;5.40;;;;;;;15.51;53.90;101923.98;107575;1254;98401;-69
2023/05/14 07:40:23;;;;;;;11.20;5.10;;;;;;;15.67;54.10;101922.09;107537;1254;97932;-69
2023/05/14 07:42:52;;;;;;;8.90;4.60;;;;;;;15.82;53.51;101920.19;107584;1254;112135;-66
2023/05/14 07:45:21;;;;;;;16.20;4.80;;;;;;;15.95;53.08;101919.17;107608;1255;110151;-71
2023/05/14 07:47:50;;;;;;;13.50;4.90;;;;;;;16.09;53.01;101916.31;107549;1254;108508;-65
2023/05/14 07:50:19;;;;;;;17.80;5.00;;;;;;;16.22;52.66;101914.73;107621;1254;97841;-70
2023/05/14 07:52:47;;;;;;;10.70;4.70;;;;;;;16.34;51.41;101912.84;107661;1254;98473;-71
2023/05/14 07:55:16;;;;;;;11.50;4.40;;;;;;;16.47;51.17;101905.14;107610;1254;112551;-71
2023/05/14 07:57:44;;;;;;;19.20;5.40;;;;;;;16.58;50.23;101908.77;107604;1256;110135;-72
2023/05/14 08:00:14;;;;;;;12.10;4.50;;;;;;;16.70;51.10;101912.36;106766;1257;1014873;-70
2023/05/14 08:02:47;;;;;;;8.90;4.70;;;;;;;16.81;50.63;101911.77;107566;1254;97688;-70
2023/05/14 08:05:17;;;;;;;9.40;4.40;;;;;;;16.92;50.06;101906.45;107645;1253;97909;-69
2023/05/14 08:07:46;;;;;;;7.80;4.00;;;;;;;17.03;50.22;101901.23;107617;1257;111218;-70
2023/05/14 08:10:15;;;;;;;18.10;4.80;;;;;;;17.17;49.79;101902.94;107614;1251;109065;-68
2023/05/14 08:12:43;;;;;;;20.00;5.30;;;;;;;17.33;49.67;101901.85;107531;1251;107562;-68
2023/05/14 08:15:11;;;;;;;8.90;4.30;;;;;;;17.50;49.30;101902.14;107573;1254;97829;-72
2023/05/14 08:17:40;;;;;;;22.00;4.00;;;;;;;17.67;48.52;101901.25;107584;1255;98323;-73
2023/05/14 08:20:10;;;;;;;12.90;3.60;;;;;;;17.82;47.90;101902.20;107633;1254;111164;-68
2023/05/14 08:22:39;;;;;;;12.70;3.80;;;;;;;17.98;48.33;101901.37;107619;1251;110018;-68
2023/05/14 08:25:07;;;;;;;11.50;3.40;;;;;;;18.13;47.94;101900.02;107620;1251;108361;-70
2023/05/14 08:27:36;;;;;;;9.10;3.30;;;;;;;18.23;45.47;101895.58;107602;1251;97866;-69
2023/05/14 08:30:05;;;;;;;10.00;3.60;;;;;;;18.29;45.35;101888.61;107616;1254;97689;-70
2023/05/14 08:32:33;;;;;;;15.10;3.80;;;;;;;18.41;46.32;101890.41;107639;1254;110785;-69
2023/05/14 08:35:02;;;;;;;16.00;4.10;;;;;;;18.56;46.34;101892.52;107647;1251;109046;-70
2023/05/14 08:37:31;;;;;;;12.40;2.60;;;;;;;18.72;44.86;101888.65;107599;1251;107651;-68
2023/05/14 08:39:59;;;;;;;12.90;3.40;;;;;;;18.83;43.41;101884.77;107596;1254;97821;-68
2023/05/14 08:42:27;;;;;;;7.80;3.20;;;;;;;18.95;42.32;101880.11;107627;1255;97845;-66
2023/05/14 08:45:00;;;;;;;10.20;2.90;;;;;;;19.08;42.32;101880.34;107586;1251;112172;-69
2023/05/14 08:47:30;;;;;;;11.10;3.00;;;;;;;19.22;42.08;101881.02;107556;1254;108666;-67
2023/05/14 08:50:03;;;;;;;11.50;3.20;;;;;;;19.32;42.09;101872.42;107583;1251;107957;-69
2023/05/14 08:52:32;;;;;;;8.60;3.00;;;;;;;19.50;41.97;101866.89;107549;1250;97825;-66
2023/05/14 08:55:04;;;;;;;7.10;2.50;;;;;;;19.66;40.63;101872.23;107610;1251;98366;-70
2023/05/14 08:57:34;;;;;;;13.20;3.20;;;;;;;19.70;39.99;101873.77;107608;1251;111328;-68
2023/05/14 09:00:13;;;;;;;6.00;3.40;;;;;;;19.71;39.69;101872.95;107634;1251;108675;-69
2023/05/14 09:02:43;;;;;;;6.60;2.40;;;;;;;19.88;39.36;101868.73;107574;1254;108173;-69
2023/05/14 09:05:13;;;;;;;11.80;2.80;;;;;;;20.09;38.65;101860.97;107558;1254;97835;-69
2023/05/14 09:07:42;;;;;;;8.10;2.90;;;;;;;20.34;38.48;101851.61;107656;1251;98349;-70
2023/05/14 09:10:11;;;;;;;15.30;3.60;;;;;;;20.64;37.96;101849.30;107618;1251;111703;-68
2023/05/14 09:12:39;;;;;;;13.80;2.80;;;;;;;20.95;37.66;101843.59;107621;1250;109828;-68
2023/05/14 09:15:08;;;;;;;10.00;2.50;;;;;;;21.30;37.52;101843.31;107607;1251;107548;-68
2023/05/14 09:17:36;;;;;;;9.00;2.90;;;;;;;21.69;37.07;101838.79;107603;1251;97685;-71
2023/05/14 09:20:08;;;;;;;13.10;2.60;;;;;;;22.16;37.04;101841.50;107641;1251;98458;-73
2023/05/14 09:22:38;;;;;;;6.50;2.10;;;;;;;22.69;33.52;101837.80;107636;1251;112960;-70
2023/05/14 09:25:10;;;;;;;5.50;1.90;;;;;;;23.25;32.49;101829.73;107663;1254;109159;-70
2023/05/14 09:27:39;;;;;;;4.20;2.30;;;;;;;23.80;30.18;101827.39;107566;1254;108800;-69
2023/05/14 09:30:11;;;;;;;7.20;2.50;;;;;;;24.23;29.68;101821.55;107635;1254;97812;-69
2023/05/14 09:32:45;;;;;;;14.30;2.50;;;;;;;24.61;28.81;101820.58;107628;1251;98517;-69
2023/05/14 09:35:21;;;;;;;3.70;2.10;;;;;;;24.99;28.04;101819.94;107644;1251;111097;-70
2023/05/14 09:37:52;;;;;;;24.20;3.30;;;;;;;25.30;27.61;101813.58;107617;1250;109587;-71
2023/05/14 09:40:23;;;;;;;10.10;2.70;;;;;;;25.56;26.31;101812.11;107662;1254;107790;-67
2023/05/14 09:42:52;;;;;;;13.70;3.00;;;;;;;25.70;26.34;101817.49;107635;1251;97836;-70
2023/05/14 09:45:20;;;;;;;18.00;2.90;;;;;;;25.83;25.58;101816.77;107610;1251;98012;-68
2023/05/14 09:47:48;;;;;;;4.40;2.00;;;;;;;25.97;25.65;101814.00;107626;1251;111328;-69
2023/05/14 09:50:18;;;;;;;2.80;1.90;;;;;;;26.22;25.40;101812.85;107650;1251;109251;-69
2023/05/14 09:52:46;;;;;;;4.00;2.30;;;;;;;26.36;25.71;101804.87;107628;1251;108694;-69
2023/05/14 09:55:15;;;;;;;11.20;2.80;;;;;;;26.57;25.22;101804.42;107611;1251;97934;-71
2023/05/14 09:57:43;;;;;;;6.60;2.80;;;;;;;26.84;24.80;101796.38;107606;1251;98379;-70
2023/05/14 10:00:13;;;;;;;6.20;2.50;;;;;;;27.11;24.15;101799.29;107664;1251;111627;-69
2023/05/14 10:02:43;;;;;;;5.70;2.20;;;;;;;27.06;25.14;101796.17;107607;1254;109087;-69
2023/05/14 10:05:14;;;;;;;4.50;2.30;;;;;;;26.50;26.71;101793.32;107535;1251;108431;-64
2023/05/14 10:07:47;;;;;;;16.50;3.20;;;;;;;26.38;27.51;101790.68;107582;1254;97829;-69
2023/05/14 10:10:19;;;;;;;12.30;2.60;;;;;;;26.49;27.97;101784.36;107620;1251;97719;-70
2023/05/14 10:12:58;;;;;;;8.50;2.60;;;;;;;26.28;28.01;101782.70;107530;1254;111346;-70
2023/05/14 10:15:35;;;;;;;7.50;2.90;;;;;;;26.67;25.61;101776.61;107518;1254;109699;-71
2023/05/14 10:18:11;;;;;;;18.40;2.50;;;;;;;27.40;24.40;101764.75;107603;1251;108689;-72
2023/05/14 10:20:41;;;;;;;8.50;2.60;;;;;;;27.50;24.52;101769.01;107634;1251;97695;-70
2023/05/14 10:23:09;;;;;;;7.20;2.60;;;;;;;27.88;22.62;101764.92;107603;1251;97720;-71
2023/05/14 10:25:38;;;;;;;10.20;2.90;;;;;;;28.14;21.97;101763.54;107570;1251;111710;-71
2023/05/14 10:28:07;;;;;;;4.00;2.20;;;;;;;28.51;21.70;101763.63;107656;1251;109841;-71
2023/05/14 10:30:40;;;;;;;4.40;2.70;;;;;;;29.05;21.58;101759.80;107591;1254;108087;-69
2023/05/14 10:33:14;;;;;;;10.10;2.90;;;;;;;29.30;21.43;101759.08;107565;1251;97848;-71
2023/05/14 10:36:15;;;;;;;6.70;2.40;;;;;;;29.74;21.57;101759.98;107694;1254;98382;-69
2023/05/14 10:38:46;;;;;;;7.00;2.20;;;;;;;30.40;21.91;101752.65;107230;1251;111904;-71
2023/05/14 10:41:16;;;;;;;5.60;2.10;;;;;;;31.01;20.84;101758.50;107630;1251;108821;-72
2023/05/14 10:43:45;;;;;;;12.30;2.50;;;;;;;31.48;20.47;101753.48;107568;1254;107457;-72
2023/05/14 10:46:13;;;;;;;7.20;2.30;;;;;;;31.37;19.62;101748.40;107625;1251;97806;-71
2023/05/14 10:48:43;;;;;;;8.10;2.00;;;;;;;30.43;20.74;101752.03;107675;1251;97700;-74
2023/05/14 10:51:11;;;;;;;15.60;2.50;;;;;;;29.76;21.14;101747.91;107650;1253;112158;-77
2023/05/14 10:53:41;;;;;;;5.00;2.50;;;;;;;29.42;21.66;101738.88;107527;1254;110823;-71
2023/05/14 10:56:13;;;;;;;4.90;2.20;;;;;;;28.81;22.20;101738.84;107632;1253;108639;-72
2023/05/14 10:58:43;;;;;;;6.40;2.20;;;;;;;28.25;22.65;101737.02;107599;1254;97838;-71
2023/05/14 11:01:12;;;;;;;4.60;2.30;;;;;;;28.03;22.96;101735.63;107634;1254;97751;-70
2023/05/14 11:03:43;;;;;;;7.90;2.60;;;;;;;27.75;22.62;101732.40;107563;1254;111940;-73
2023/05/14 11:06:14;;;;;;;4.80;2.60;;;;;;;27.32;22.78;101740.23;107638;1251;108562;-69
2023/05/14 11:08:43;;;;;;;9.30;2.50;;;;;;;27.63;23.02;101740.92;107629;1251;106819;-70
2023/05/14 11:11:11;;;;;;;4.30;2.00;;;;;;;27.88;23.01;101739.93;107592;1254;97641;-70
2023/05/14 11:13:40;;;;;;;9.30;2.50;;;;;;;27.54;22.62;101740.11;107649;1251;97848;-72
2023/05/14 11:16:09;;;;;;;5.50;2.90;;;;;;;27.08;22.86;101733.66;107576;1251;111551;-71
2023/05/14 11:18:40;;;;;;;12.90;2.70;;;;;;;26.58;22.98;101736.54;107657;1254;109411;-69
2023/05/14 11:21:09;;;;;;;4.60;2.20;;;;;;;26.19;23.38;101735.03;107638;1256;108780;-70